Time;durP1;ratioP1;P1;durP2;ratioP2;P2;SDS_P1;SDS_P2;PMS_P1;PMS_P2;Temp;Humidity;BMP_temperature;BMP_pressure;BME280_temperature;BME280_humidity;BME280_pressure;Samples;Min_cycle;Max_cycle;Signal;HPM_P1;HPM_P2
2022/01/17 00:00:36;;;;;;;19.83;8.80;;;;;;;;;;5023623;28;20068;-78
2022/01/17 00:03:11;;;;;;;14.93;8.70;;;;;;;;;;5036992;28;20493;-70
2022/01/17 00:05:38;;;;;;;13.95;8.13;;;;;;;;;;5039056;28;20109;-74
2022/01/17 00:08:04;;;;;;;12.25;7.90;;;;;;;;;;5042991;28;20442;-79
2022/01/17 00:10:30;;;;;;;15.18;8.35;;;;;;;;;;5041418;28;20504;-76
2022/01/17 00:12:58;;;;;;;13.48;8.18;;;;;;;;;;5039578;28;20056;-78
2022/01/17 00:15:41;;;;;;;15.02;8.18;;;;;;;;;;5043445;28;20056;-76
2022/01/17 00:20:40;;;;;;;13.73;7.88;;;;;;;;;;5037182;28;20343;-71
2022/01/17 00:23:07;;;;;;;12.27;8.02;;;;;;;;;;5041138;28;20449;-67
2022/01/17 00:25:33;;;;;;;12.32;7.95;;;;;;;;;;5024848;28;20044;-70
2022/01/17 00:27:59;;;;;;;14.48;8.40;;;;;;;;;;5025400;28;20063;-80
2022/01/17 00:30:25;;;;;;;13.50;7.85;;;;;;;;;;5045928;28;20070;-78
2022/01/17 00:32:51;;;;;;;14.25;7.80;;;;;;;;;;5040359;28;20053;-71
2022/01/17 00:35:17;;;;;;;13.10;8.30;;;;;;;;;;5041109;28;20149;-71
2022/01/17 00:37:44;;;;;;;16.25;8.07;;;;;;;;;;5043753;28;20040;-76
2022/01/17 00:40:11;;;;;;;12.20;8.20;;;;;;;;;;5041811;28;20554;-68
2022/01/17 00:42:37;;;;;;;12.55;7.75;;;;;;;;;;5039742;28;20047;-69
2022/01/17 00:45:07;;;;;;;13.60;7.95;;;;;;;;;;5044369;28;20048;-77
2022/01/17 00:47:33;;;;;;;14.02;7.78;;;;;;;;;;5041723;28;20055;-72
2022/01/17 00:49:59;;;;;;;12.98;7.38;;;;;;;;;;5046024;28;20053;-84
2022/01/17 00:52:25;;;;;;;13.48;7.70;;;;;;;;;;5041046;28;20489;-74
2022/01/17 00:54:52;;;;;;;12.40;6.88;;;;;;;;;;5042636;28;20047;-80
2022/01/17 00:57:18;;;;;;;10.65;7.00;;;;;;;;;;5042153;28;20055;-70
2022/01/17 00:59:44;;;;;;;12.82;7.00;;;;;;;;;;5026351;28;21317;-71
2022/01/17 01:02:10;;;;;;;10.85;6.68;;;;;;;;;;5040236;28;20059;-69
2022/01/17 01:04:37;;;;;;;12.57;7.00;;;;;;;;;;5041567;28;20143;-70
2022/01/17 01:07:03;;;;;;;13.68;6.82;;;;;;;;;;5042948;28;20194;-78
2022/01/17 01:09:34;;;;;;;10.55;6.40;;;;;;;;;;5043473;28;20052;-69
2022/01/17 01:12:00;;;;;;;10.68;6.65;;;;;;;;;;5042318;28;20139;-77
2022/01/17 01:14:26;;;;;;;11.60;6.78;;;;;;;;;;5025012;28;20059;-72
2022/01/17 01:16:54;;;;;;;12.77;6.65;;;;;;;;;;5043548;28;20256;-77
2022/01/17 01:30:09;;;;;;;11.10;5.65;;;;;;;;;;4997915;28;20656;-75
2022/01/17 01:32:43;;;;;;;9.57;5.72;;;;;;;;;;4998698;28;20084;-83
2022/01/17 01:35:12;;;;;;;;;;;;;;;;;;4988553;28;20118;-64
2022/01/17 01:37:39;;;;;;;9.25;5.90;;;;;;;;;;5003692;28;20032;-75
2022/01/17 01:40:06;;;;;;;12.75;5.70;;;;;;;;;;4986794;28;20407;-74
2022/01/17 01:42:33;;;;;;;13.02;6.07;;;;;;;;;;4998593;28;20059;-81
2022/01/17 01:45:01;;;;;;;8.52;5.30;;;;;;;;;;4991692;28;20115;-77
2022/01/17 01:47:27;;;;;;;9.13;5.65;;;;;;;;;;4985075;28;20282;-80
2022/01/17 01:49:53;;;;;;;10.57;5.45;;;;;;;;;;5003188;28;20050;-77
2022/01/17 01:52:20;;;;;;;10.10;6.00;;;;;;;;;;5000712;28;20435;-67
2022/01/17 01:54:46;;;;;;;10.23;5.75;;;;;;;;;;4984658;28;20053;-73
2022/01/17 01:57:12;;;;;;;10.38;5.93;;;;;;;;;;4984210;28;20689;-71
2022/01/17 01:59:39;;;;;;;9.73;5.30;;;;;;;;;;5000542;28;20048;-71
2022/01/17 02:02:06;;;;;;;9.45;5.20;;;;;;;;;;4986456;28;20050;-73
2022/01/17 02:04:33;;;;;;;12.32;5.18;;;;;;;;;;5042470;28;20062;-73
2022/01/17 02:06:59;;;;;;;8.60;5.10;;;;;;;;;;5026611;28;20505;-78
2022/01/17 02:09:25;;;;;;;10.75;4.65;;;;;;;;;;5043433;28;20048;-77
2022/01/17 02:11:51;;;;;;;11.15;5.45;;;;;;;;;;5043073;28;20511;-71
2022/01/17 02:14:18;;;;;;;8.32;5.10;;;;;;;;;;5038690;28;20048;-70
2022/01/17 02:16:47;;;;;;;8.90;4.72;;;;;;;;;;5040669;28;20060;-78
2022/01/17 02:19:18;;;;;;;7.72;4.55;;;;;;;;;;5045379;28;20075;-74
2022/01/17 02:21:47;;;;;;;8.57;4.53;;;;;;;;;;5043773;28;20052;-66
2022/01/17 02:24:16;;;;;;;8.38;4.70;;;;;;;;;;5020081;28;20059;-71
2022/01/17 02:26:44;;;;;;;7.22;4.75;;;;;;;;;;5040339;28;20535;-71
2022/01/17 02:29:10;;;;;;;8.10;5.13;;;;;;;;;;5043931;28;20068;-69
2022/01/17 02:31:38;;;;;;;7.60;3.90;;;;;;;;;;5040941;28;20082;-72
2022/01/17 02:34:04;;;;;;;9.80;4.13;;;;;;;;;;5039570;28;20048;-85
2022/01/17 02:36:31;;;;;;;8.38;4.95;;;;;;;;;;5044264;28;20037;-71
2022/01/17 02:38:58;;;;;;;9.80;4.30;;;;;;;;;;5047059;28;20056;-73
2022/01/17 02:41:46;;;;;;;7.85;4.88;;;;;;;;;;5046781;28;20807;-79
2022/01/17 02:44:13;;;;;;;7.35;4.00;;;;;;;;;;5043675;28;20095;-69
2022/01/17 02:46:39;;;;;;;7.63;4.00;;;;;;;;;;5027277;28;20546;-81
2022/01/17 02:49:05;;;;;;;7.35;4.20;;;;;;;;;;5045088;28;20136;-72
2022/01/17 02:51:32;;;;;;;6.53;3.97;;;;;;;;;;5045931;28;20445;-78
2022/01/17 02:53:59;;;;;;;7.05;3.75;;;;;;;;;;5043430;28;20045;-75
2022/01/17 02:56:26;;;;;;;6.45;4.10;;;;;;;;;;5046735;28;20248;-79
2022/01/17 02:58:53;;;;;;;8.73;4.20;;;;;;;;;;5044755;28;20155;-80
2022/01/17 03:01:23;;;;;;;7.00;3.97;;;;;;;;;;5045881;28;20053;-79
2022/01/17 03:03:50;;;;;;;6.65;4.30;;;;;;;;;;5041901;28;20310;-72
2022/01/17 03:06:18;;;;;;;7.07;3.70;;;;;;;;;;5046676;28;20139;-73
2022/01/17 03:08:45;;;;;;;5.05;3.60;;;;;;;;;;5046199;28;20103;-80
2022/01/17 03:11:20;;;;;;;7.00;3.92;;;;;;;;;;5044722;28;21290;-68
2022/01/17 03:13:48;;;;;;;6.70;4.43;;;;;;;;;;5041536;28;20056;-67
2022/01/17 03:16:17;;;;;;;6.85;3.80;;;;;;;;;;5046988;28;20763;-69
2022/01/17 03:18:52;;;;;;;12.70;5.10;;;;;;;;;;5046319;28;20093;-74
2022/01/17 03:21:20;;;;;;;6.10;3.85;;;;;;;;;;5045498;28;20052;-78
2022/01/17 03:23:50;;;;;;;8.02;3.75;;;;;;;;;;5041753;28;20152;-71
2022/01/17 03:26:16;;;;;;;7.65;3.83;;;;;;;;;;5046621;28;20080;-67
2022/01/17 03:28:42;;;;;;;7.45;3.50;;;;;;;;;;5045744;28;20094;-74
2022/01/17 03:31:10;;;;;;;7.80;3.70;;;;;;;;;;5046582;28;20661;-67
2022/01/17 03:33:37;;;;;;;6.32;3.63;;;;;;;;;;5044331;28;20503;-71
2022/01/17 03:36:04;;;;;;;6.88;3.40;;;;;;;;;;5049035;28;20188;-73
2022/01/17 03:38:32;;;;;;;7.35;3.65;;;;;;;;;;5047161;28;20547;-81
2022/01/17 03:41:01;;;;;;;8.10;3.28;;;;;;;;;;5045414;28;20056;-71
2022/01/17 03:43:28;;;;;;;9.57;3.40;;;;;;;;;;5044514;28;20109;-80
2022/01/17 03:45:57;;;;;;;6.15;3.60;;;;;;;;;;5047580;28;20052;-77
2022/01/17 03:48:24;;;;;;;4.53;3.40;;;;;;;;;;5046539;28;20136;-74
2022/01/17 03:50:51;;;;;;;6.15;3.70;;;;;;;;;;5045784;28;20063;-67
2022/01/17 03:53:18;;;;;;;4.47;3.33;;;;;;;;;;5042095;28;20137;-75
2022/01/17 03:55:44;;;;;;;9.75;4.88;;;;;;;;;;5044214;28;20570;-66
2022/01/17 03:58:10;;;;;;;5.97;3.65;;;;;;;;;;5043867;28;20044;-76
2022/01/17 04:00:40;;;;;;;9.07;3.80;;;;;;;;;;5043530;28;20912;-75
2022/01/17 04:03:07;;;;;;;6.72;3.30;;;;;;;;;;5042550;28;20057;-74
2022/01/17 04:05:34;;;;;;;5.43;3.13;;;;;;;;;;5044932;28;20056;-79
2022/01/17 04:08:00;;;;;;;5.05;3.60;;;;;;;;;;5026052;28;20490;-79
2022/01/17 04:10:27;;;;;;;7.57;3.38;;;;;;;;;;5044842;28;20693;-81
2022/01/17 04:13:00;;;;;;;7.65;3.70;;;;;;;;;;5042694;28;20456;-72
2022/01/17 04:15:28;;;;;;;5.13;3.20;;;;;;;;;;5044578;28;20072;-76
2022/01/17 04:17:55;;;;;;;6.72;3.40;;;;;;;;;;5045230;28;20541;-72
2022/01/17 04:20:28;;;;;;;6.68;3.42;;;;;;;;;;5045625;28;20056;-67
2022/01/17 04:22:57;;;;;;;5.63;3.22;;;;;;;;;;5042235;28;20061;-77
2022/01/17 04:25:25;;;;;;;5.05;3.03;;;;;;;;;;5046025;28;20352;-80
2022/01/17 04:27:52;;;;;;;6.45;3.22;;;;;;;;;;5028893;28;20048;-68
2022/01/17 04:30:20;;;;;;;11.18;3.58;;;;;;;;;;5043100;28;20504;-67
2022/01/17 04:32:46;;;;;;;5.03;3.00;;;;;;;;;;5042384;28;20044;-76
2022/01/17 04:35:20;;;;;;;8.50;3.53;;;;;;;;;;5029593;28;20083;-69
2022/01/17 04:37:48;;;;;;;5.90;3.38;;;;;;;;;;5047498;28;20496;-67
2022/01/17 04:40:15;;;;;;;6.60;3.40;;;;;;;;;;5044767;28;21148;-68
2022/01/17 04:42:45;;;;;;;7.60;3.20;;;;;;;;;;5042855;28;20045;-75
2022/01/17 04:45:14;;;;;;;8.10;3.40;;;;;;;;;;5044578;28;20398;-68
2022/01/17 04:47:43;;;;;;;7.43;3.38;;;;;;;;;;5042558;28;20426;-75
2022/01/17 04:50:15;;;;;;;6.88;3.85;;;;;;;;;;5043951;28;20486;-76
2022/01/17 04:52:42;;;;;;;5.72;3.28;;;;;;;;;;5040678;28;20059;-67
2022/01/17 04:55:11;;;;;;;6.45;3.40;;;;;;;;;;5043560;28;20052;-71
2022/01/17 04:57:38;;;;;;;6.25;3.53;;;;;;;;;;5042638;28;20048;-72
2022/01/17 05:00:07;;;;;;;8.05;3.50;;;;;;;;;;5042456;28;20082;-77
2022/01/17 05:02:34;;;;;;;5.80;3.28;;;;;;;;;;5039450;28;20052;-81
2022/01/17 05:05:03;;;;;;;8.73;3.10;;;;;;;;;;5043728;28;20079;-79
2022/01/17 05:07:29;;;;;;;8.63;3.30;;;;;;;;;;5044687;28;20424;-70
2022/01/17 05:09:55;;;;;;;5.65;3.58;;;;;;;;;;5043843;28;21007;-74
2022/01/17 05:12:22;;;;;;;6.28;3.22;;;;;;;;;;5038002;28;20056;-67
2022/01/17 05:14:51;;;;;;;7.18;3.50;;;;;;;;;;5039862;28;20055;-73
2022/01/17 05:17:57;;;;;;;4.57;2.92;;;;;;;;;;5040826;28;20044;-72
2022/01/17 05:20:10;;;;;;;5.65;2.80;;;;;;;;;;5042633;28;20052;-69
2022/01/17 05:22:38;;;;;;;5.38;3.13;;;;;;;;;;5042132;28;20131;-77
2022/01/17 05:25:07;;;;;;;8.82;3.03;;;;;;;;;;5043521;28;20068;-73
2022/01/17 05:27:35;;;;;;;5.65;2.70;;;;;;;;;;5041865;28;20057;-77
2022/01/17 05:30:05;;;;;;;3.95;2.72;;;;;;;;;;5026367;28;20293;-81
2022/01/17 05:32:32;;;;;;;3.75;2.80;;;;;;;;;;5041429;28;20320;-79
2022/01/17 05:34:58;;;;;;;4.72;2.88;;;;;;;;;;5044180;28;20056;-83
2022/01/17 05:37:24;;;;;;;5.07;2.72;;;;;;;;;;5045131;28;20082;-78
2022/01/17 05:39:50;;;;;;;8.52;2.80;;;;;;;;;;5045105;28;20053;-73
2022/01/17 05:42:18;;;;;;;9.57;2.72;;;;;;;;;;5042551;28;20058;-76
2022/01/17 05:44:46;;;;;;;4.70;3.10;;;;;;;;;;5040165;28;22636;-68
2022/01/17 05:47:12;;;;;;;5.45;2.97;;;;;;;;;;5040385;28;20056;-67
2022/01/17 05:49:39;;;;;;;6.32;2.55;;;;;;;;;;5042638;28;20053;-75
2022/01/17 05:52:06;;;;;;;5.82;2.63;;;;;;;;;;5042562;28;20072;-79
2022/01/17 05:54:32;;;;;;;5.47;3.13;;;;;;;;;;5040312;28;20132;-80
2022/01/17 05:56:58;;;;;;;5.45;3.08;;;;;;;;;;5043223;28;20295;-80
2022/01/17 05:59:24;;;;;;;11.52;3.20;;;;;;;;;;5041238;28;20053;-83
2022/01/17 06:01:51;;;;;;;5.72;3.05;;;;;;;;;;5039470;28;21296;-81
2022/01/17 06:04:17;;;;;;;8.02;2.88;;;;;;;;;;5022912;28;20469;-81
2022/01/17 06:06:43;;;;;;;7.32;3.00;;;;;;;;;;5045447;28;20155;-76
2022/01/17 06:09:10;;;;;;;8.82;3.15;;;;;;;;;;5045183;28;20044;-74
2022/01/17 06:11:36;;;;;;;10.35;3.50;;;;;;;;;;5042768;28;20505;-80
2022/01/17 06:14:04;;;;;;;8.55;3.55;;;;;;;;;;5025917;28;20045;-74
2022/01/17 06:16:30;;;;;;;6.18;3.75;;;;;;;;;;5048122;28;20131;-74
2022/01/17 06:18:57;;;;;;;7.60;3.80;;;;;;;;;;5028447;28;20238;-77
2022/01/17 06:21:23;;;;;;;8.10;4.35;;;;;;;;;;5046272;28;20057;-78
2022/01/17 06:23:49;;;;;;;7.07;3.92;;;;;;;;;;5042628;28;20136;-73
2022/01/17 06:26:16;;;;;;;11.45;4.75;;;;;;;;;;5045233;28;20049;-69
2022/01/17 06:28:42;;;;;;;13.88;4.28;;;;;;;;;;5040892;28;20071;-73
2022/01/17 06:31:08;;;;;;;7.13;3.90;;;;;;;;;;5041083;28;20048;-77
2022/01/17 06:33:34;;;;;;;9.15;4.93;;;;;;;;;;5042931;28;20056;-75
2022/01/17 06:36:00;;;;;;;7.45;4.30;;;;;;;;;;5025307;28;20422;-72
2022/01/17 06:38:26;;;;;;;12.02;4.22;;;;;;;;;;5025832;28;20056;-79
2022/01/17 06:40:52;;;;;;;7.88;4.10;;;;;;;;;;5041754;28;20068;-74
2022/01/17 06:43:19;;;;;;;9.82;4.15;;;;;;;;;;5042318;28;20172;-74
2022/01/17 06:45:45;;;;;;;12.65;4.85;;;;;;;;;;5042763;28;20048;-70
2022/01/17 06:48:11;;;;;;;7.30;4.55;;;;;;;;;;5038152;28;20394;-74
2022/01/17 06:50:38;;;;;;;7.18;4.57;;;;;;;;;;5043005;28;20044;-77
2022/01/17 06:53:05;;;;;;;10.63;5.20;;;;;;;;;;5043219;28;20190;-80
2022/01/17 06:55:31;;;;;;;9.95;5.20;;;;;;;;;;5043054;28;20541;-77
2022/01/17 06:57:57;;;;;;;14.10;5.78;;;;;;;;;;5026781;28;20052;-76
2022/01/17 07:00:23;;;;;;;13.70;5.38;;;;;;;;;;5042460;28;20052;-79
2022/01/17 07:02:50;;;;;;;16.13;5.60;;;;;;;;;;5017651;28;20071;-76
2022/01/17 07:05:16;;;;;;;15.15;6.72;;;;;;;;;;5043382;28;20056;-73
2022/01/17 07:07:43;;;;;;;9.43;5.88;;;;;;;;;;5026306;28;20044;-79
2022/01/17 07:10:09;;;;;;;14.38;6.43;;;;;;;;;;5045115;28;20451;-80
2022/01/17 07:12:36;;;;;;;14.90;7.40;;;;;;;;;;5039650;28;20040;-78
2022/01/17 07:15:07;;;;;;;25.77;7.05;;;;;;;;;;5044538;28;20055;-77
2022/01/17 07:17:34;;;;;;;15.80;6.82;;;;;;;;;;5042996;28;20501;-80
2022/01/17 07:20:00;;;;;;;14.50;6.80;;;;;;;;;;5044882;28;20049;-81
2022/01/17 07:22:27;;;;;;;13.65;7.30;;;;;;;;;;5043904;28;20482;-81
2022/01/17 07:24:56;;;;;;;11.30;6.15;;;;;;;;;;5043373;28;20502;-77
2022/01/17 07:27:24;;;;;;;14.27;5.68;;;;;;;;;;5042789;28;20697;-70
2022/01/17 07:29:51;;;;;;;11.43;5.78;;;;;;;;;;5045241;28;20175;-70
2022/01/17 07:32:17;;;;;;;16.77;6.28;;;;;;;;;;5038815;28;20048;-71
2022/01/17 07:34:43;;;;;;;17.27;5.45;;;;;;;;;;5040506;28;20059;-73
2022/01/17 07:37:09;;;;;;;20.33;6.15;;;;;;;;;;5047058;28;20052;-68
2022/01/17 07:39:37;;;;;;;8.57;5.05;;;;;;;;;;5048532;28;20052;-76
2022/01/17 07:42:04;;;;;;;12.43;5.00;;;;;;;;;;5050654;28;20079;-75
2022/01/17 07:44:31;;;;;;;14.25;4.90;;;;;;;;;;5048655;28;20044;-73
2022/01/17 07:47:01;;;;;;;16.70;5.10;;;;;;;;;;5043768;28;20067;-72
2022/01/17 07:49:28;;;;;;;12.23;4.85;;;;;;;;;;5030356;28;20048;-79
2022/01/17 07:52:01;;;;;;;19.75;6.03;;;;;;;;;;5029270;28;20454;-78
2022/01/17 07:54:30;;;;;;;13.88;5.25;;;;;;;;;;5046284;28;20045;-71
2022/01/17 07:56:58;;;;;;;12.07;4.85;;;;;;;;;;5048010;28;20044;-76
2022/01/17 07:59:24;;;;;;;15.27;4.80;;;;;;;;;;5046146;28;20056;-77
2022/01/17 08:01:51;;;;;;;13.23;4.57;;;;;;;;;;5045778;28;20313;-79
2022/01/17 08:04:18;;;;;;;18.02;5.35;;;;;;;;;;5046005;28;20363;-69
2022/01/17 08:06:46;;;;;;;11.07;4.70;;;;;;;;;;5045862;28;20059;-75
2022/01/17 08:09:40;;;;;;;12.57;4.45;;;;;;;;;;5049469;28;20055;-76
2022/01/17 08:12:08;;;;;;;12.90;4.22;;;;;;;;;;5047311;28;21100;-75
2022/01/17 08:14:36;;;;;;;14.63;4.40;;;;;;;;;;5044874;28;20413;-74
2022/01/17 08:17:03;;;;;;;27.45;4.47;;;;;;;;;;5049528;28;20362;-72
2022/01/17 08:19:29;;;;;;;11.13;3.92;;;;;;;;;;5049378;28;20139;-76
2022/01/17 08:21:56;;;;;;;9.93;3.60;;;;;;;;;;5048335;28;20060;-72
2022/01/17 08:24:22;;;;;;;18.33;4.28;;;;;;;;;;5044355;28;20098;-76
2022/01/17 08:26:50;;;;;;;11.68;3.78;;;;;;;;;;5047714;28;20546;-77
2022/01/17 08:29:17;;;;;;;12.73;3.72;;;;;;;;;;5045439;28;20064;-67
2022/01/17 08:31:46;;;;;;;13.50;4.82;;;;;;;;;;5047330;28;20052;-77
2022/01/17 08:34:17;;;;;;;14.10;4.35;;;;;;;;;;5043170;28;20184;-75
2022/01/17 08:36:44;;;;;;;11.25;4.07;;;;;;;;;;5049999;28;20060;-72
2022/01/17 08:39:11;;;;;;;9.20;3.58;;;;;;;;;;5032942;28;20075;-81
2022/01/17 08:41:42;;;;;;;11.48;4.40;;;;;;;;;;5048573;28;20060;-69
2022/01/17 08:44:09;;;;;;;8.32;3.70;;;;;;;;;;5046567;28;20167;-75
2022/01/17 08:46:36;;;;;;;15.15;4.40;;;;;;;;;;5031343;28;20052;-73
2022/01/17 08:49:02;;;;;;;15.00;5.28;;;;;;;;;;5048902;28;20148;-76
2022/01/17 08:51:29;;;;;;;14.80;4.15;;;;;;;;;;5047044;28;20040;-75
2022/01/17 08:53:57;;;;;;;13.13;4.45;;;;;;;;;;5047826;28;20090;-74
2022/01/17 08:56:23;;;;;;;9.18;3.97;;;;;;;;;;5049398;28;20087;-71
2022/01/17 08:58:50;;;;;;;11.07;4.68;;;;;;;;;;5048596;28;20067;-68
2022/01/17 09:01:16;;;;;;;12.95;4.50;;;;;;;;;;5044708;28;20160;-80
2022/01/17 09:03:42;;;;;;;11.10;4.55;;;;;;;;;;5025796;28;20051;-72
2022/01/17 09:06:08;;;;;;;12.45;4.20;;;;;;;;;;5049589;28;20061;-75
2022/01/17 09:08:35;;;;;;;15.85;4.57;;;;;;;;;;5048501;28;20052;-72
2022/01/17 09:11:01;;;;;;;12.13;4.22;;;;;;;;;;5048652;28;20045;-77
2022/01/17 09:13:28;;;;;;;11.52;4.88;;;;;;;;;;5046288;28;20542;-73
2022/01/17 09:15:54;;;;;;;12.40;4.55;;;;;;;;;;5031163;28;20501;-79
2022/01/17 09:18:20;;;;;;;13.15;4.50;;;;;;;;;;5047676;28;20133;-73
2022/01/17 09:20:48;;;;;;;9.63;4.82;;;;;;;;;;5050303;28;20056;-68
2022/01/17 09:23:14;;;;;;;13.88;5.60;;;;;;;;;;5026856;28;20056;-69
2022/01/17 09:25:41;;;;;;;11.85;5.47;;;;;;;;;;5049106;28;20065;-75
2022/01/17 09:28:07;;;;;;;13.13;5.32;;;;;;;;;;5043673;28;20052;-74
2022/01/17 09:30:33;;;;;;;13.90;5.82;;;;;;;;;;5029928;28;20176;-79
2022/01/17 09:33:00;;;;;;;16.30;6.22;;;;;;;;;;5044926;28;20213;-77
2022/01/17 09:35:26;;;;;;;15.82;6.25;;;;;;;;;;5048434;28;20056;-80
2022/01/17 09:37:52;;;;;;;19.60;6.32;;;;;;;;;;5032907;28;20210;-74
2022/01/17 09:40:19;;;;;;;21.27;6.57;;;;;;;;;;5050098;28;20337;-71
2022/01/17 09:42:46;;;;;;;15.00;5.97;;;;;;;;;;5046886;28;20950;-72
2022/01/17 09:45:15;;;;;;;13.95;5.85;;;;;;;;;;5049392;28;20080;-70
2022/01/17 09:47:42;;;;;;;12.70;5.97;;;;;;;;;;5051935;28;20114;-69
2022/01/17 09:50:13;;;;;;;11.30;5.47;;;;;;;;;;5054707;28;20068;-76
2022/01/17 09:52:45;;;;;;;14.40;5.60;;;;;;;;;;5051774;28;20374;-79
2022/01/17 09:55:15;;;;;;;16.60;5.22;;;;;;;;;;5054041;28;20057;-72
2022/01/17 09:57:47;;;;;;;12.05;4.95;;;;;;;;;;5054123;28;20060;-78
2022/01/17 10:00:19;;;;;;;16.33;5.10;;;;;;;;;;5054990;28;20108;-74
2022/01/17 10:02:45;;;;;;;11.95;5.65;;;;;;;;;;5053807;28;20113;-77
2022/01/17 10:05:14;;;;;;;24.30;5.38;;;;;;;;;;5055058;28;20571;-75
2022/01/17 10:08:06;;;;;;;16.10;5.10;;;;;;;;;;5051915;28;20477;-70
2022/01/17 10:10:58;;;;;;;15.85;5.38;;;;;;;;;;5047576;28;20052;-79
2022/01/17 10:13:31;;;;;;;13.55;4.35;;;;;;;;;;5051558;28;20207;-76
2022/01/17 10:16:14;;;;;;;14.40;4.65;;;;;;;;;;5053567;28;20052;-73
2022/01/17 10:18:48;;;;;;;9.05;5.30;;;;;;;;;;5051395;28;20810;-72
2022/01/17 10:21:45;;;;;;;16.77;5.05;;;;;;;;;;5052961;28;20378;-68
2022/01/17 10:35:17;;;;;;;13.02;4.95;;;;;;;;;;5053002;28;20464;-80
2022/01/17 10:37:59;;;;;;;14.45;5.20;;;;;;;;;;5054581;28;20082;-69
2022/01/17 10:40:30;;;;;;;19.05;6.38;;;;;;;;;;5053561;28;20056;-75
2022/01/17 10:42:58;;;;;;;17.55;6.28;;;;;;;;;;5049022;28;20056;-81
2022/01/17 10:45:31;;;;;;;16.50;6.88;;;;;;;;;;5052062;28;20057;-82
2022/01/17 10:47:58;;;;;;;20.67;6.82;;;;;;;;;;5034604;28;20064;-76
2022/01/17 10:50:30;;;;;;;17.38;6.63;;;;;;;;;;5051360;28;20045;-77
2022/01/17 10:53:00;;;;;;;13.05;5.68;;;;;;;;;;5051643;28;20064;-78
2022/01/17 10:55:29;;;;;;;13.43;7.07;;;;;;;;;;5052987;28;20053;-78
2022/01/17 10:58:02;;;;;;;21.67;7.60;;;;;;;;;;5048479;28;20151;-76
2022/01/17 11:00:34;;;;;;;14.43;7.65;;;;;;;;;;5051390;28;20056;-79
2022/01/17 11:03:04;;;;;;;18.67;8.05;;;;;;;;;;5050113;28;20056;-75
2022/01/17 11:05:32;;;;;;;17.58;8.82;;;;;;;;;;5049010;28;20052;-75
2022/01/17 11:08:01;;;;;;;28.50;10.73;;;;;;;;;;5036053;28;20048;-76
2022/01/17 11:10:31;;;;;;;16.30;9.65;;;;;;;;;;5048517;28;20045;-75
2022/01/17 11:13:02;;;;;;;25.00;10.07;;;;;;;;;;5044704;28;20488;-77
2022/01/17 11:15:33;;;;;;;24.48;11.00;;;;;;;;;;5051006;28;20057;-86
2022/01/17 11:18:09;;;;;;;23.42;10.10;;;;;;;;;;5052492;28;20052;-80
2022/01/17 11:20:39;;;;;;;22.58;9.75;;;;;;;;;;5050164;28;20525;-73
2022/01/17 11:23:06;;;;;;;16.33;8.43;;;;;;;;;;5049219;28;20052;-75
2022/01/17 11:25:37;;;;;;;16.52;8.05;;;;;;;;;;5053077;28;20048;-82
2022/01/17 11:28:06;;;;;;;14.75;7.32;;;;;;;;;;5050992;28;20470;-73
2022/01/17 11:30:35;;;;;;;11.73;7.10;;;;;;;;;;5051045;28;20237;-81
2022/01/17 11:33:09;;;;;;;15.45;7.65;;;;;;;;;;5047807;28;20049;-69
2022/01/17 11:35:41;;;;;;;18.58;7.30;;;;;;;;;;5051848;28;20119;-71
2022/01/17 11:38:15;;;;;;;14.20;7.78;;;;;;;;;;5055260;28;20494;-73
2022/01/17 11:40:43;;;;;;;17.80;7.63;;;;;;;;;;5034306;28;21352;-69
2022/01/17 11:43:24;;;;;;;11.30;6.60;;;;;;;;;;5049659;28;20159;-70
2022/01/17 11:45:53;;;;;;;19.67;6.50;;;;;;;;;;5050335;28;20045;-76
2022/01/17 11:48:23;;;;;;;13.23;6.63;;;;;;;;;;5054116;28;20159;-69
2022/01/17 11:50:52;;;;;;;24.98;6.75;;;;;;;;;;5051297;28;21091;-79
2022/01/17 11:53:18;;;;;;;14.32;6.68;;;;;;;;;;5050013;28;20052;-70
2022/01/17 11:55:46;;;;;;;16.00;6.50;;;;;;;;;;5050601;28;20052;-81
2022/01/17 11:58:31;;;;;;;11.45;5.47;;;;;;;;;;5048412;28;20145;-76
2022/01/17 12:01:01;;;;;;;16.45;5.32;;;;;;;;;;5049854;28;20048;-80
2022/01/17 12:03:41;;;;;;;9.10;5.10;;;;;;;;;;5048626;28;20170;-83
2022/01/17 12:06:33;;;;;;;10.75;5.07;;;;;;;;;;5050428;28;20048;-77
2022/01/17 12:09:20;;;;;;;10.40;5.03;;;;;;;;;;5051076;28;20052;-79
2022/01/17 12:11:49;;;;;;;11.65;5.32;;;;;;;;;;5050220;28;20060;-75
2022/01/17 12:14:29;;;;;;;11.35;4.30;;;;;;;;;;5047072;28;20458;-80
2022/01/17 12:17:25;;;;;;;16.38;6.57;;;;;;;;;;5053603;28;20080;-78
2022/01/17 12:20:09;;;;;;;10.75;5.97;;;;;;;;;;5047965;28;20049;-69
2022/01/17 12:22:39;;;;;;;13.43;6.93;;;;;;;;;;5049545;28;20513;-87
2022/01/17 12:25:22;;;;;;;18.23;8.13;;;;;;;;;;5053888;28;20053;-81
2022/01/17 12:27:50;;;;;;;19.15;9.85;;;;;;;;;;5050163;28;20106;-73
2022/01/17 12:30:18;;;;;;;20.20;10.82;;;;;;;;;;5050087;28;20067;-69
2022/01/17 12:32:48;;;;;;;19.92;9.48;;;;;;;;;;5048937;28;20072;-78
2022/01/17 12:35:26;;;;;;;14.32;9.73;;;;;;;;;;5053406;28;20060;-72
2022/01/17 12:37:56;;;;;;;12.32;7.80;;;;;;;;;;5051109;28;20052;-74
2022/01/17 12:40:25;;;;;;;13.65;8.93;;;;;;;;;;5052626;28;20663;-73
2022/01/17 12:43:09;;;;;;;14.15;8.98;;;;;;;;;;5050207;28;20773;-81
2022/01/17 12:45:43;;;;;;;17.02;9.63;;;;;;;;;;5052612;28;20086;-81
2022/01/17 12:48:16;;;;;;;20.00;10.60;;;;;;;;;;5052138;28;20044;-77
2022/01/17 12:50:49;;;;;;;17.48;9.55;;;;;;;;;;5050869;28;20790;-77
2022/01/17 12:53:18;;;;;;;14.80;9.00;;;;;;;;;;5048113;28;20101;-75
2022/01/17 12:55:46;;;;;;;16.65;9.35;;;;;;;;;;5054674;28;20166;-77
2022/01/17 12:58:21;;;;;;;18.23;8.98;;;;;;;;;;5053056;28;20049;-81
2022/01/17 13:00:58;;;;;;;14.93;7.78;;;;;;;;;;5053720;28;20102;-73
2022/01/17 13:03:29;;;;;;;13.23;7.10;;;;;;;;;;5052176;28;20653;-75
2022/01/17 13:05:56;;;;;;;16.95;7.47;;;;;;;;;;5053818;28;20064;-76
2022/01/17 13:08:23;;;;;;;15.25;7.47;;;;;;;;;;5055501;28;20056;-81
2022/01/17 13:10:50;;;;;;;12.73;7.28;;;;;;;;;;5057014;28;20167;-72
2022/01/17 13:13:21;;;;;;;15.35;8.02;;;;;;;;;;5053161;28;20163;-73
2022/01/17 13:16:11;;;;;;;8.98;5.68;;;;;;;;;;5054837;28;20058;-75
2022/01/17 13:18:37;;;;;;;12.20;6.78;;;;;;;;;;5053067;28;20728;-79
2022/01/17 13:21:05;;;;;;;13.18;6.85;;;;;;;;;;5052101;28;20048;-79
2022/01/17 13:23:44;;;;;;;12.98;6.25;;;;;;;;;;5051526;28;20048;-80
2022/01/17 13:26:15;;;;;;;11.65;6.88;;;;;;;;;;5054749;28;20051;-72
2022/01/17 13:28:53;;;;;;;12.13;5.07;;;;;;;;;;5052726;28;20422;-84
2022/01/17 13:31:22;;;;;;;9.77;5.18;;;;;;;;;;5053201;28;20052;-72
2022/01/17 13:33:49;;;;;;;9.18;5.15;;;;;;;;;;5048647;28;20056;-80
2022/01/17 13:36:28;;;;;;;15.88;6.68;;;;;;;;;;5048101;28;20087;-72
2022/01/17 13:38:59;;;;;;;11.73;6.00;;;;;;;;;;5049778;28;20585;-75
2022/01/17 13:41:29;;;;;;;9.75;5.35;;;;;;;;;;5052912;28;20448;-80
2022/01/17 13:43:56;;;;;;;13.98;6.78;;;;;;;;;;5048676;28;21590;-76
2022/01/17 13:46:23;;;;;;;11.00;4.78;;;;;;;;;;5051780;28;20053;-74
2022/01/17 13:48:49;;;;;;;25.65;12.05;;;;;;;;;;5048373;28;20056;-78
2022/01/17 13:51:23;;;;;;;13.40;6.68;;;;;;;;;;5053287;28;20060;-76
2022/01/17 13:53:54;;;;;;;10.32;4.53;;;;;;;;;;5051501;28;20068;-74
2022/01/17 13:56:20;;;;;;;12.82;4.40;;;;;;;;;;5049848;28;20087;-82
2022/01/17 13:58:51;;;;;;;10.80;4.65;;;;;;;;;;5050142;28;20048;-79
2022/01/17 14:01:18;;;;;;;9.30;5.13;;;;;;;;;;5048052;28;20045;-79
2022/01/17 14:03:45;;;;;;;10.35;4.60;;;;;;;;;;5045595;28;20076;-71
2022/01/17 14:06:16;;;;;;;14.05;4.28;;;;;;;;;;5050920;28;20122;-78
2022/01/17 14:08:50;;;;;;;11.35;3.80;;;;;;;;;;5051852;28;20055;-72
2022/01/17 14:11:23;;;;;;;8.55;3.75;;;;;;;;;;5052551;28;20052;-70
2022/01/17 14:13:55;;;;;;;5.63;3.50;;;;;;;;;;5047929;28;20208;-76
2022/01/17 14:16:24;;;;;;;10.57;4.20;;;;;;;;;;5048355;28;20088;-73
2022/01/17 14:18:55;;;;;;;8.45;4.10;;;;;;;;;;5050010;28;20052;-69
2022/01/17 14:21:25;;;;;;;7.00;4.40;;;;;;;;;;5051366;28;20080;-81
2022/01/17 14:24:25;;;;;;;5.75;3.50;;;;;;;;;;5048990;28;20052;-74
2022/01/17 14:26:55;;;;;;;16.25;5.18;;;;;;;;;;5049023;28;20048;-78
2022/01/17 14:29:27;;;;;;;8.80;4.30;;;;;;;;;;5048518;28;20048;-76
2022/01/17 14:31:56;;;;;;;13.90;6.05;;;;;;;;;;5051911;28;20059;-70
2022/01/17 14:34:29;;;;;;;15.77;4.60;;;;;;;;;;5054262;28;20052;-71
2022/01/17 14:36:58;;;;;;;7.20;4.33;;;;;;;;;;5053975;28;20078;-73
2022/01/17 14:39:29;;;;;;;13.18;5.10;;;;;;;;;;5051188;28;20474;-85
2022/01/17 14:42:06;;;;;;;9.63;4.90;;;;;;;;;;5053378;28;20535;-77
2022/01/17 14:44:37;;;;;;;10.77;5.30;;;;;;;;;;5054293;28;20227;-83
2022/01/17 14:47:11;;;;;;;10.88;5.03;;;;;;;;;;5056569;28;20461;-82
2022/01/17 14:49:50;;;;;;;12.73;5.50;;;;;;;;;;5039770;28;20529;-77
2022/01/17 14:52:20;;;;;;;8.43;4.55;;;;;;;;;;5058641;28;20063;-79
2022/01/17 14:55:00;;;;;;;8.90;4.97;;;;;;;;;;5057735;28;20169;-74
2022/01/17 15:05:37;;;;;;;9.75;4.97;;;;;;;;;;5061154;28;20110;-75
2022/01/17 15:08:05;;;;;;;9.15;4.53;;;;;;;;;;5059420;28;20233;-86
2022/01/17 15:10:32;;;;;;;10.27;4.28;;;;;;;;;;5056753;28;20049;-82
2022/01/17 15:13:00;;;;;;;13.40;4.70;;;;;;;;;;5053104;28;20528;-72
2022/01/17 15:15:30;;;;;;;7.22;3.97;;;;;;;;;;5038259;28;20045;-79
2022/01/17 15:18:01;;;;;;;8.88;4.40;;;;;;;;;;5054387;28;20053;-73
2022/01/17 15:20:28;;;;;;;14.25;4.57;;;;;;;;;;5052314;28;20132;-81